createdAt,value
2023-05-12T00:01:05.128Z,98995.38
2023-05-12T00:02:26.353Z,98997.05
2023-05-12T00:04:02.127Z,99001.36
2023-05-12T00:05:27.300Z,98998.95
2023-05-12T00:06:49.086Z,99003.61
2023-05-12T00:08:11.106Z,98996.38
2023-05-12T00:09:44.505Z,98999.86
2023-05-12T00:11:13.408Z,99000.64
2023-05-12T00:12:35.090Z,99001.66
2023-05-12T00:13:59.497Z,98999.84
2023-05-12T00:15:24.150Z,99002.52
2023-05-12T00:16:57.468Z,99002.88
2023-05-12T00:18:28.601Z,98999.76
2023-05-12T00:19:50.308Z,99001.96
2023-05-12T00:21:14.340Z,98999.29
2023-05-12T00:22:47.662Z,99000.41
2023-05-12T00:24:21.594Z,98999.84
2023-05-12T00:25:43.215Z,98993.59
2023-05-12T00:27:16.619Z,98984.83
2023-05-12T00:28:41.008Z,98989.43
2023-05-12T00:30:02.756Z,98997.57
2023-05-12T00:31:26.568Z,99000.82
2023-05-12T00:32:50.839Z,98999.13
2023-05-12T00:34:20.135Z,99001.88
2023-05-12T00:35:42.057Z,98999.61
2023-05-12T00:37:06.368Z,98987.80
2023-05-12T00:38:41.899Z,98994.30
2023-05-12T00:40:23.202Z,98996.84
2023-05-12T00:41:47.658Z,98995.34
2023-05-12T00:43:12.007Z,98995.73
2023-05-12T00:44:47.717Z,98996.04
2023-05-12T00:46:09.690Z,98999.68
2023-05-12T00:47:32.272Z,98999.98
2023-05-12T00:48:58.698Z,99002.70
2023-05-12T00:50:27.875Z,99000.32
2023-05-12T00:51:49.911Z,98998.20
2023-05-12T00:53:13.668Z,98999.55
2023-05-12T00:54:35.780Z,99001.11
2023-05-12T00:56:04.960Z,98999.70
2023-05-12T00:57:31.734Z,99001.46
2023-05-12T00:58:55.895Z,99002.23
2023-05-12T01:00:18.703Z,98999.91
2023-05-12T01:01:54.001Z,99003.40
2023-05-12T01:03:19.097Z,99002.14
2023-05-12T01:04:51.040Z,99001.21
2023-05-12T01:06:13.642Z,99003.99
2023-05-12T01:07:47.125Z,99003.42
2023-05-12T01:09:20.949Z,99005.83
2023-05-12T01:10:45.086Z,99006.61
2023-05-12T01:12:26.212Z,99007.30
2023-05-12T01:13:48.063Z,99007.84
2023-05-12T01:15:10.113Z,99006.71
2023-05-12T01:16:32.036Z,99007.55
2023-05-12T01:18:01.578Z,99005.48
2023-05-12T01:19:25.800Z,99005.49
2023-05-12T01:20:59.789Z,99008.27
2023-05-12T01:22:33.483Z,99009.58
2023-05-12T01:24:08.233Z,99011.14
2023-05-12T01:25:37.811Z,99011.55
2023-05-12T01:27:09.246Z,99008.68
2023-05-12T01:28:33.601Z,99011.34
2023-05-12T01:30:07.516Z,99012.55
2023-05-12T01:31:31.972Z,99017.22
2023-05-12T01:32:56.781Z,99014.41
2023-05-12T01:34:19.104Z,99017.34
2023-05-12T01:35:47.374Z,99019.55
2023-05-12T01:37:16.289Z,99022.05
2023-05-12T01:38:38.271Z,99019.15
2023-05-12T01:40:03.259Z,99020.04
2023-05-12T01:41:32.530Z,99021.85
2023-05-12T01:42:56.310Z,99020.65
2023-05-12T01:44:30.616Z,99021.13
2023-05-12T01:46:12.706Z,99020.77
2023-05-12T01:47:47.550Z,99027.75
2023-05-12T01:49:21.444Z,99023.33
2023-05-12T01:50:45.342Z,99028.82
2023-05-12T01:52:24.969Z,99024.70
2023-05-12T01:53:49.940Z,99025.42
2023-05-12T01:55:11.892Z,99027.94
2023-05-12T01:56:51.873Z,99029.95
2023-05-12T01:58:20.989Z,99027.56
2023-05-12T01:59:43.885Z,99030.58
2023-05-12T02:01:06.240Z,99024.24
2023-05-12T02:02:28.439Z,99025.84
2023-05-12T02:03:50.056Z,99025.02
2023-05-12T02:05:12.573Z,99030.52
2023-05-12T02:06:44.599Z,99026.80
2023-05-12T02:08:08.980Z,99027.30
2023-05-12T02:09:33.112Z,99028.57
2023-05-12T02:10:57.733Z,99027.14
2023-05-12T02:12:20.342Z,99025.98
2023-05-12T02:13:54.408Z,99029.35
2023-05-12T02:15:23.236Z,99032.31
2023-05-12T02:16:52.388Z,99031.45
2023-05-12T02:18:17.106Z,99031.87
2023-05-12T02:19:38.998Z,99029.63
2023-05-12T02:21:08.952Z,99033.13
2023-05-12T02:22:42.405Z,99031.51
2023-05-12T02:24:12.355Z,99031.04
2023-05-12T02:25:35.831Z,99035.27
2023-05-12T02:26:59.210Z,99033.98
2023-05-12T02:28:21.552Z,99029.77
2023-05-12T02:29:45.654Z,99036.46
2023-05-12T02:31:07.576Z,99033.83
2023-05-12T02:32:34.611Z,99036.48
2023-05-12T02:34:06.313Z,99038.93
2023-05-12T02:35:31.690Z,99038.71
2023-05-12T02:37:01.104Z,99041.40
2023-05-12T02:38:22.881Z,99038.26
2023-05-12T02:39:51.719Z,99036.89
2023-05-12T02:41:15.786Z,99024.79
2023-05-12T02:42:38.610Z,99037.88
2023-05-12T02:44:03.499Z,99037.91
2023-05-12T02:45:27.932Z,99041.11
2023-05-12T02:46:49.592Z,99041.48
2023-05-12T02:48:23.603Z,99039.98
2023-05-12T02:49:45.345Z,99043.42
2023-05-12T02:51:07.661Z,99041.98
2023-05-12T02:52:36.832Z,99040.34
2023-05-12T02:53:58.952Z,99041.31
2023-05-12T02:55:30.330Z,99043.64
2023-05-12T02:56:56.552Z,99041.61
2023-05-12T02:58:30.331Z,99039.77
2023-05-12T03:00:01.710Z,99035.95
2023-05-12T03:01:26.082Z,99040.39
2023-05-12T03:02:50.491Z,99039.05
2023-05-12T03:04:12.512Z,99042.09
2023-05-12T03:05:36.706Z,99041.06
2023-05-12T03:07:05.499Z,99044.85
2023-05-12T03:08:29.709Z,99042.58
2023-05-12T03:10:03.311Z,99044.25
2023-05-12T03:11:27.180Z,99032.88
2023-05-12T03:12:51.171Z,99041.04
2023-05-12T03:14:13.095Z,99041.95
2023-05-12T03:15:34.988Z,99039.59
2023-05-12T03:17:16.231Z,99038.08
2023-05-12T03:18:41.552Z,99039.49
2023-05-12T03:20:18.125Z,99038.88
2023-05-12T03:21:42.747Z,99038.20
2023-05-12T03:23:18.625Z,99038.73
2023-05-12T03:24:52.410Z,99036.83
2023-05-12T03:26:18.374Z,99039.14
2023-05-12T03:27:43.233Z,99038.33
2023-05-12T03:29:09.479Z,99039.18
2023-05-12T03:30:33.706Z,99042.58
2023-05-12T03:32:09.625Z,99038.90
2023-05-12T03:33:40.541Z,99042.17
2023-05-12T03:35:17.099Z,99039.05
2023-05-12T03:36:57.964Z,99039.94
2023-05-12T03:38:19.770Z,99038.02
2023-05-12T03:39:41.643Z,99038.45
2023-05-12T03:41:06.181Z,99041.46
2023-05-12T03:42:28.559Z,99043.95
2023-05-12T03:44:10.113Z,99044.58
2023-05-12T03:45:31.633Z,99042.30
2023-05-12T03:47:01.154Z,99039.52
2023-05-12T03:48:27.599Z,99042.75
2023-05-12T03:49:58.956Z,99046.68
2023-05-12T03:51:22.640Z,99044.26
2023-05-12T03:52:57.773Z,99047.90
2023-05-12T03:54:19.809Z,99045.26
2023-05-12T03:55:41.518Z,99045.43
2023-05-12T03:57:05.265Z,99048.17
2023-05-12T03:58:29.794Z,99050.16
2023-05-12T04:00:06.412Z,99055.41
2023-05-12T04:01:51.851Z,99053.29
2023-05-12T04:03:25.875Z,99055.08
2023-05-12T04:04:49.609Z,99057.34
2023-05-12T04:06:18.733Z,99042.51
2023-05-12T04:07:40.582Z,99054.96
2023-05-12T04:09:04.692Z,99056.92
2023-05-12T04:10:40.580Z,99056.16
2023-05-12T04:12:05.031Z,99057.59
2023-05-12T04:13:27.015Z,99055.89
2023-05-12T04:15:08.701Z,99056.70
2023-05-12T04:16:42.600Z,99058.30
2023-05-12T04:18:18.310Z,99055.02
2023-05-12T04:19:54.013Z,99063.08
2023-05-12T04:21:18.284Z,99060.44
2023-05-12T04:22:51.752Z,99064.30
2023-05-12T04:24:14.084Z,99052.05
2023-05-12T04:25:35.809Z,99062.73
2023-05-12T04:26:57.635Z,99068.57
2023-05-12T04:28:21.785Z,99066.26
2023-05-12T04:29:43.615Z,99068.93
2023-05-12T04:31:08.919Z,99070.95
2023-05-12T04:32:33.564Z,99075.89
2023-05-12T04:33:57.588Z,99073.05
2023-05-12T04:35:19.981Z,99077.60
2023-05-12T04:36:42.052Z,99077.91
2023-05-12T04:38:04.416Z,99081.48
2023-05-12T04:39:26.489Z,99080.91
2023-05-12T04:41:03.581Z,99079.11
2023-05-12T04:42:37.141Z,99081.13
2023-05-12T04:44:00.976Z,99080.52
2023-05-12T04:45:25.143Z,99080.92
2023-05-12T04:46:56.457Z,99078.67
2023-05-12T04:48:22.886Z,99078.85
2023-05-12T04:49:47.013Z,99077.13
2023-05-12T04:51:09.327Z,99074.76
2023-05-12T04:52:30.828Z,99081.05
2023-05-12T04:54:04.364Z,99085.60
2023-05-12T04:55:28.339Z,99083.77
2023-05-12T04:56:57.424Z,99085.17
2023-05-12T04:58:19.870Z,99083.09
2023-05-12T04:59:51.568Z,99082.44
2023-05-12T05:01:23.503Z,99083.14
2023-05-12T05:02:59.248Z,99082.23
2023-05-12T05:04:24.136Z,99079.32
2023-05-12T05:05:45.995Z,99083.77
2023-05-12T05:07:19.337Z,99086.50
2023-05-12T05:08:41.663Z,99085.38
2023-05-12T05:10:13.279Z,99090.59
2023-05-12T05:11:36.884Z,99092.20
2023-05-12T05:13:07.006Z,99094.73
2023-05-12T05:14:30.990Z,99089.34
2023-05-12T05:15:52.978Z,99092.08
2023-05-12T05:17:27.180Z,99096.06
2023-05-12T05:19:05.731Z,99096.41
2023-05-12T05:20:32.764Z,99095.79
2023-05-12T05:21:56.951Z,99098.04
2023-05-12T05:23:30.598Z,99098.21
2023-05-12T05:24:55.066Z,99095.99
2023-05-12T05:26:16.742Z,99096.09
2023-05-12T05:27:38.984Z,99101.67
2023-05-12T05:29:01.122Z,99098.47
2023-05-12T05:30:34.373Z,99094.31
2023-05-12T05:32:05.657Z,99097.56
2023-05-12T05:33:29.800Z,99095.55
2023-05-12T05:34:51.785Z,99094.16
2023-05-12T05:36:29.421Z,99098.23
2023-05-12T05:37:54.669Z,99096.03
2023-05-12T05:39:22.870Z,99094.93
2023-05-12T05:40:58.708Z,99094.75
2023-05-12T05:42:21.349Z,99090.89
2023-05-12T05:43:46.077Z,99096.11
2023-05-12T05:45:10.312Z,99096.08
2023-05-12T05:46:32.963Z,99093.60
2023-05-12T05:47:56.753Z,99096.02
2023-05-12T05:49:23.183Z,99094.02
2023-05-12T05:50:47.780Z,99091.64
2023-05-12T05:52:23.705Z,99095.13
2023-05-12T05:53:48.573Z,99095.27
2023-05-12T05:55:11.039Z,99099.30
2023-05-12T05:56:33.436Z,99095.27
2023-05-12T05:57:55.104Z,99099.84
2023-05-12T05:59:17.755Z,99101.35
2023-05-12T06:00:39.259Z,99100.61
2023-05-12T06:02:01.880Z,99103.23
2023-05-12T06:03:23.851Z,99101.34
2023-05-12T06:04:57.114Z,99105.73
2023-05-12T06:06:19.061Z,99101.16
2023-05-12T06:07:43.071Z,99103.27
2023-05-12T06:09:12.367Z,99104.11
2023-05-12T06:10:43.600Z,99102.79
2023-05-12T06:12:05.409Z,99106.63
2023-05-12T06:13:38.969Z,99104.48
2023-05-12T06:15:01.121Z,99107.52
2023-05-12T06:16:22.741Z,99104.29
2023-05-12T06:17:44.840Z,99102.66
2023-05-12T06:19:06.684Z,99101.84
2023-05-12T06:20:35.566Z,99107.00
2023-05-12T06:21:58.011Z,99103.48
2023-05-12T06:23:31.412Z,99102.27
2023-05-12T06:24:53.378Z,99105.53
2023-05-12T06:26:15.468Z,99103.89
2023-05-12T06:27:39.353Z,99099.67
2023-05-12T06:29:15.407Z,99095.13
2023-05-12T06:30:39.254Z,99101.44
2023-05-12T06:32:05.960Z,99102.35
2023-05-12T06:33:27.827Z,99103.55
2023-05-12T06:34:56.788Z,99100.29
2023-05-12T06:36:33.411Z,99105.25
2023-05-12T06:37:57.638Z,99104.02
2023-05-12T06:39:21.936Z,99106.55
2023-05-12T06:40:45.903Z,99108.23
2023-05-12T06:42:07.793Z,99107.65
2023-05-12T06:43:35.167Z,99112.02
2023-05-12T06:45:06.152Z,99113.97
2023-05-12T06:46:28.027Z,99115.48
2023-05-12T06:47:59.108Z,99113.69
2023-05-12T06:49:25.630Z,99116.98
2023-05-12T06:51:19.429Z,99117.41
2023-05-12T06:52:51.134Z,99117.03
2023-05-12T06:54:15.353Z,99110.73
2023-05-12T06:55:50.971Z,99115.62
2023-05-12T06:57:22.744Z,99118.55
2023-05-12T06:58:44.770Z,99117.27
2023-05-12T07:00:07.481Z,99119.65
2023-05-12T07:01:48.583Z,99115.98
2023-05-12T07:03:22.301Z,99119.94
2023-05-12T07:04:46.593Z,99113.04
2023-05-12T07:06:08.519Z,99118.20
2023-05-12T07:07:32.585Z,99115.16
2023-05-12T07:08:54.571Z,99110.68
2023-05-12T07:10:16.394Z,99114.33
2023-05-12T07:11:37.823Z,99113.20
2023-05-12T07:12:59.606Z,99108.46
2023-05-12T07:14:26.062Z,99117.16
2023-05-12T07:15:55.235Z,99116.17
2023-05-12T07:17:19.188Z,99112.86
2023-05-12T07:18:40.972Z,99115.17
2023-05-12T07:20:04.873Z,99116.65
2023-05-12T07:21:28.810Z,99118.30
2023-05-12T07:22:57.984Z,99113.26
2023-05-12T07:24:31.740Z,99116.47
2023-05-12T07:25:55.406Z,99113.48
2023-05-12T07:27:17.777Z,99114.30
2023-05-12T07:28:39.734Z,99112.31
2023-05-12T07:30:01.665Z,99103.32
2023-05-12T07:31:23.540Z,99108.13
2023-05-12T07:32:45.282Z,99115.23
2023-05-12T07:34:07.254Z,99113.00
2023-05-12T07:35:36.245Z,99112.80
2023-05-12T07:37:15.377Z,99114.94
2023-05-12T07:38:37.044Z,99110.19
2023-05-12T07:40:05.343Z,99108.17
2023-05-12T07:41:30.221Z,99105.94
2023-05-12T07:42:55.172Z,99103.64
2023-05-12T07:44:17.221Z,99105.44
2023-05-12T07:45:38.794Z,99099.55
2023-05-12T07:47:01.169Z,99110.15
2023-05-12T07:48:25.537Z,99109.98
2023-05-12T07:49:47.025Z,99095.86
2023-05-12T07:51:08.756Z,99105.85
2023-05-12T07:52:30.843Z,99108.73
2023-05-12T07:54:04.732Z,99107.23
2023-05-12T07:55:26.593Z,99109.23
2023-05-12T07:56:48.580Z,99114.15
2023-05-12T07:58:12.251Z,99110.84
2023-05-12T07:59:33.690Z,99107.02
2023-05-12T08:00:56.665Z,99111.25
2023-05-12T08:02:21.036Z,99107.86
2023-05-12T08:03:43.164Z,99106.52
2023-05-12T08:05:04.861Z,99110.61
2023-05-12T08:06:26.426Z,99108.78
2023-05-12T08:07:50.685Z,99113.70
2023-05-12T08:09:12.694Z,99104.63
2023-05-12T08:10:40.126Z,99108.92
2023-05-12T08:12:01.774Z,99112.15
2023-05-12T08:13:23.415Z,99110.74
2023-05-12T08:14:54.368Z,99106.27
2023-05-12T08:16:16.176Z,99109.25
2023-05-12T08:17:37.860Z,99116.54
2023-05-12T08:18:59.744Z,99114.42
2023-05-12T08:20:23.905Z,99111.81
2023-05-12T08:21:53.618Z,99114.61
2023-05-12T08:23:17.936Z,99112.36
2023-05-12T08:24:41.604Z,99116.29
2023-05-12T08:26:03.547Z,99113.19
2023-05-12T08:27:27.762Z,99116.83
2023-05-12T08:28:49.524Z,99115.02
2023-05-12T08:30:13.514Z,99114.56
2023-05-12T08:31:38.146Z,99107.86
2023-05-12T08:33:00.249Z,99112.42
2023-05-12T08:34:31.126Z,99113.20
2023-05-12T08:35:52.838Z,99109.11
2023-05-12T08:37:34.774Z,99117.42
2023-05-12T08:38:57.009Z,99104.92
2023-05-12T08:40:18.866Z,99106.74
2023-05-12T08:43:57.201Z,99110.05
2023-05-12T08:45:30.845Z,99114.86
2023-05-12T08:46:52.700Z,99116.32
2023-05-12T08:48:15.746Z,99112.43
2023-05-12T08:49:44.779Z,99112.86
2023-05-12T08:51:07.025Z,99104.77
2023-05-12T08:52:29.447Z,99109.02
2023-05-12T08:54:05.000Z,99114.56
2023-05-12T08:55:32.783Z,99108.82
2023-05-12T08:58:41.556Z,99113.58
2023-05-12T09:00:04.810Z,99118.22
2023-05-12T09:01:45.076Z,99120.70
2023-05-12T09:03:09.491Z,99123.63
2023-05-12T09:04:43.142Z,99125.98
2023-05-12T09:06:04.620Z,99119.02
2023-05-12T09:07:38.346Z,99120.95
2023-05-12T09:09:11.599Z,99120.87
2023-05-12T09:10:35.956Z,99117.64
2023-05-12T09:12:09.536Z,99117.84
2023-05-12T09:13:31.235Z,99119.39
2023-05-12T09:14:52.999Z,99118.84
2023-05-12T09:16:14.784Z,99115.62
2023-05-12T09:17:38.548Z,99119.23
2023-05-12T09:19:00.309Z,99123.42
2023-05-12T09:20:30.914Z,99114.76
2023-05-12T09:21:53.057Z,99115.10
2023-05-12T09:23:14.776Z,99115.70
2023-05-12T09:24:39.042Z,99111.69
2023-05-12T09:26:12.576Z,99114.06
2023-05-12T09:27:34.256Z,99120.82
2023-05-12T09:28:58.040Z,99120.20
2023-05-12T09:30:22.595Z,99116.54
2023-05-12T09:31:46.809Z,99113.45
2023-05-12T09:33:08.489Z,99115.54
2023-05-12T09:34:41.755Z,99114.69
2023-05-12T09:36:03.248Z,99117.60
2023-05-12T09:37:25.316Z,99114.88
2023-05-12T09:38:47.183Z,99114.19
2023-05-12T09:40:08.781Z,99115.76
2023-05-12T09:41:30.213Z,99111.99
2023-05-12T09:42:54.430Z,99111.01
2023-05-12T09:44:26.795Z,99110.31
2023-05-12T09:45:50.888Z,99096.80
2023-05-12T09:47:12.631Z,99113.42
2023-05-12T09:48:38.946Z,99115.98
2023-05-12T09:50:01.560Z,99109.02
2023-05-12T09:51:23.503Z,99112.40
2023-05-12T09:52:45.436Z,99116.92
2023-05-12T09:54:08.029Z,99115.46
2023-05-12T09:55:30.015Z,99111.35
2023-05-12T09:57:03.811Z,99102.91
2023-05-12T09:58:40.519Z,99106.65
2023-05-12T10:00:02.359Z,99103.54
2023-05-12T10:01:27.313Z,99100.61
2023-05-12T10:02:48.888Z,99105.16
2023-05-12T10:04:10.674Z,99106.65
2023-05-12T10:05:40.069Z,99114.48
2023-05-12T10:07:08.788Z,99110.73
2023-05-12T10:08:30.751Z,99106.96
2023-05-12T10:09:54.497Z,99109.77
2023-05-12T10:11:27.951Z,99107.79
2023-05-12T10:12:52.763Z,99106.61
2023-05-12T10:14:16.682Z,99112.11
2023-05-12T10:15:58.499Z,99110.70
2023-05-12T10:17:22.768Z,99109.52
2023-05-12T10:18:59.288Z,99102.98
2023-05-12T10:20:21.267Z,99105.00
2023-05-12T10:22:00.016Z,99103.83
2023-05-12T10:23:24.182Z,99111.98
2023-05-12T10:25:04.944Z,99110.00
2023-05-12T10:26:36.427Z,99104.70
2023-05-12T10:28:00.949Z,99107.91
2023-05-12T10:29:29.915Z,99102.27
2023-05-12T10:31:04.513Z,99106.77
2023-05-12T10:32:33.129Z,99108.23
2023-05-12T10:33:55.040Z,99102.17
2023-05-12T10:35:28.447Z,99104.59
2023-05-12T10:37:09.185Z,99110.27
2023-05-12T10:38:33.058Z,99108.56
2023-05-12T10:40:08.473Z,99112.27
2023-05-12T10:41:51.147Z,99113.19
2023-05-12T10:43:37.091Z,99112.09
2023-05-12T10:45:07.055Z,99106.68
2023-05-12T10:46:41.993Z,99106.39
2023-05-12T10:48:10.777Z,99111.46
2023-05-12T10:49:44.584Z,99097.50
2023-05-12T10:51:14.005Z,99102.01
2023-05-12T10:52:37.857Z,99105.30
2023-05-12T10:54:14.791Z,99113.44
2023-05-12T10:55:56.930Z,99108.70
2023-05-12T10:57:34.523Z,99110.13
2023-05-12T10:59:31.536Z,99100.31
2023-05-12T11:00:56.087Z,99105.41
2023-05-12T11:02:34.740Z,99100.41
2023-05-12T11:04:01.261Z,99103.55
2023-05-12T11:05:25.806Z,99106.48
2023-05-12T11:06:51.601Z,99103.95
2023-05-12T11:08:14.224Z,99111.64
2023-05-12T11:09:37.973Z,99099.02
2023-05-12T11:11:06.707Z,99101.14
2023-05-12T11:12:40.127Z,99102.60
2023-05-12T11:14:15.820Z,99104.41
2023-05-12T11:15:51.164Z,99105.48
2023-05-12T11:17:27.334Z,99102.25
2023-05-12T11:18:59.103Z,99106.14
2023-05-12T11:20:20.954Z,99108.92
2023-05-12T11:21:47.831Z,99101.66
2023-05-12T11:23:28.645Z,99104.41
2023-05-12T11:24:50.544Z,99114.72
2023-05-12T11:26:17.337Z,99114.20
2023-05-12T11:27:44.697Z,99112.63
2023-05-12T11:29:14.265Z,99110.30
2023-05-12T11:30:35.922Z,99106.10
2023-05-12T11:32:00.401Z,99108.49
2023-05-12T11:33:22.891Z,99111.45
2023-05-12T11:34:58.459Z,99113.34
2023-05-12T11:36:27.516Z,99114.11
2023-05-12T11:38:03.561Z,99118.61
2023-05-12T11:39:40.956Z,99113.70
2023-05-12T11:41:14.510Z,99113.67
2023-05-12T11:42:57.497Z,99119.56
2023-05-12T11:44:21.690Z,99114.42
2023-05-12T11:45:55.280Z,99118.75
2023-05-12T11:47:28.456Z,99122.23
2023-05-12T11:49:22.269Z,99124.97
2023-05-12T11:50:44.083Z,99119.00
2023-05-12T11:52:07.873Z,99119.86
2023-05-12T11:53:43.573Z,99120.73
2023-05-12T11:55:28.891Z,99119.73
2023-05-12T11:57:02.515Z,99113.84
2023-05-12T11:58:30.619Z,99121.75
2023-05-12T12:00:15.626Z,99108.03
2023-05-12T12:01:37.512Z,99117.06
2023-05-12T12:03:11.311Z,99121.87
2023-05-12T12:05:06.568Z,99128.96
2023-05-12T12:06:32.269Z,99130.88
2023-05-12T12:07:55.992Z,99124.65
2023-05-12T12:09:30.636Z,99118.34
2023-05-12T12:11:11.296Z,99107.80
2023-05-12T12:12:52.436Z,99119.35
2023-05-12T12:14:16.228Z,99120.54
2023-05-12T12:15:50.391Z,99122.04
2023-05-12T12:17:31.391Z,99115.02
2023-05-12T12:19:07.484Z,99112.55
2023-05-12T12:20:31.401Z,99119.27
2023-05-12T12:22:16.340Z,99121.20
2023-05-12T12:23:50.527Z,99120.86
2023-05-12T12:25:13.303Z,99109.91
2023-05-12T12:26:38.899Z,99118.88
2023-05-12T12:28:08.406Z,99118.35
2023-05-12T12:29:43.860Z,99124.59
2023-05-12T12:31:10.087Z,99121.79
2023-05-12T12:32:45.445Z,99125.88
2023-05-12T12:34:19.205Z,99117.59
2023-05-12T12:36:04.216Z,99120.72
2023-05-12T12:37:37.880Z,99115.16
2023-05-12T12:38:59.298Z,99119.80
2023-05-12T12:40:35.100Z,99121.23
2023-05-12T12:41:58.979Z,99118.66
2023-05-12T12:43:23.243Z,99108.92
2023-05-12T12:44:59.238Z,99118.09
2023-05-12T12:46:28.874Z,99123.30
2023-05-12T12:48:14.095Z,99116.02
2023-05-12T12:49:47.454Z,99110.30
2023-05-12T12:51:45.677Z,99114.64
2023-05-12T12:53:09.778Z,99110.38
2023-05-12T12:54:32.070Z,99110.61
2023-05-12T12:56:07.944Z,99116.14
2023-05-12T12:57:29.760Z,99116.30
2023-05-12T12:58:58.602Z,99106.61
2023-05-12T13:00:32.435Z,99105.19
2023-05-12T13:02:07.777Z,99103.88
2023-05-12T13:03:29.872Z,99109.50
2023-05-12T13:05:05.222Z,99107.85
2023-05-12T13:06:29.447Z,99099.77
2023-05-12T13:07:53.488Z,99106.52
2023-05-12T13:09:22.773Z,99104.83
2023-05-12T13:10:54.552Z,99106.84
2023-05-12T13:12:30.402Z,99101.33
2023-05-12T13:13:52.000Z,99096.64
2023-05-12T13:15:17.491Z,99095.62
2023-05-12T13:16:58.350Z,99092.34
2023-05-12T13:18:31.962Z,99099.14
2023-05-12T13:20:17.244Z,99104.05
2023-05-12T13:21:58.590Z,99099.19
2023-05-12T13:23:39.410Z,99101.45
2023-05-12T13:25:16.559Z,99095.95
2023-05-12T13:26:52.202Z,99108.84
2023-05-12T13:28:32.797Z,99102.25
2023-05-12T13:30:14.083Z,99107.52
2023-05-12T13:31:47.380Z,99103.80
2023-05-12T13:33:16.408Z,99097.83
2023-05-12T13:34:47.352Z,99106.66
2023-05-12T13:36:16.925Z,99100.22
2023-05-12T13:38:01.817Z,99096.94
2023-05-12T13:39:46.063Z,99095.13
2023-05-12T13:41:10.251Z,99093.79
2023-05-12T13:42:46.820Z,99097.52
2023-05-12T13:44:22.825Z,99099.14
2023-05-12T13:46:07.952Z,99099.70
2023-05-12T13:47:43.507Z,99097.16
2023-05-12T13:49:28.404Z,99089.71
2023-05-12T13:50:57.585Z,99097.87
2023-05-12T13:52:43.329Z,99096.95
2023-05-12T13:54:14.706Z,99096.56
2023-05-12T13:55:52.310Z,99098.92
2023-05-12T13:57:25.840Z,99099.52
2023-05-12T13:58:49.517Z,99098.33
2023-05-12T14:00:30.534Z,99096.70
2023-05-12T14:02:16.221Z,99091.80
2023-05-12T14:04:01.056Z,99094.94
2023-05-12T14:05:34.854Z,99097.95
2023-05-12T14:06:59.015Z,99093.80
2023-05-12T14:08:32.332Z,99086.91
2023-05-12T14:10:18.568Z,99082.10
2023-05-12T14:11:52.000Z,99095.02
2023-05-12T14:13:21.275Z,99097.27
2023-05-12T14:14:58.104Z,99097.41
2023-05-12T14:16:25.992Z,99100.77
2023-05-12T14:18:00.007Z,99092.25
2023-05-12T14:19:40.596Z,99097.66
2023-05-12T14:21:25.751Z,99096.23
2023-05-12T14:23:01.570Z,99096.05
2023-05-12T14:24:32.889Z,99097.14
2023-05-12T14:25:58.814Z,99101.83
2023-05-12T14:27:32.242Z,99097.04
2023-05-12T14:29:12.816Z,99094.39
2023-05-12T14:30:48.406Z,99097.62
2023-05-12T14:32:26.566Z,99093.34
2023-05-12T14:34:11.234Z,99092.12
2023-05-12T14:35:55.787Z,99095.83
2023-05-12T14:37:24.047Z,99092.05
2023-05-12T14:39:04.395Z,99090.63
2023-05-12T14:40:52.258Z,99091.11
2023-05-12T14:42:38.160Z,99088.86
2023-05-12T14:44:15.221Z,99088.70
2023-05-12T14:46:00.427Z,99087.46
2023-05-12T14:47:24.543Z,99083.15
2023-05-12T14:48:53.409Z,99081.34
2023-05-12T14:50:28.207Z,99082.50
2023-05-12T14:51:55.586Z,99086.27
2023-05-12T14:53:50.553Z,99088.14
2023-05-12T14:55:12.443Z,99091.06
2023-05-12T14:56:48.169Z,99090.34
2023-05-12T14:58:34.773Z,99087.98
2023-05-12T15:00:29.333Z,99092.61
2023-05-12T15:02:02.557Z,99091.77
2023-05-12T15:03:36.036Z,99093.11
2023-05-12T15:05:07.054Z,99095.36
2023-05-12T15:06:43.721Z,99096.82
2023-05-12T15:08:29.152Z,99090.92
2023-05-12T15:10:10.607Z,99094.06
2023-05-12T15:11:50.701Z,99094.45
2023-05-12T15:13:21.437Z,99091.86
2023-05-12T15:15:06.145Z,99095.09
2023-05-12T15:16:28.237Z,99090.56
2023-05-12T15:17:52.818Z,99095.99
2023-05-12T15:19:17.528Z,99093.71
2023-05-12T15:20:41.816Z,99095.13
2023-05-12T15:22:07.948Z,99094.23
2023-05-12T15:23:43.254Z,99095.84
2023-05-12T15:25:16.831Z,99096.58
2023-05-12T15:26:49.931Z,99100.39
2023-05-12T15:28:43.580Z,99094.27
2023-05-12T15:30:12.513Z,99091.50
2023-05-12T15:32:05.480Z,99086.37
2023-05-12T15:33:39.433Z,99086.91
2023-05-12T15:35:12.981Z,99083.05
2023-05-12T15:36:57.603Z,99088.92
2023-05-12T15:38:32.955Z,99087.32
2023-05-12T15:40:18.092Z,99080.73
2023-05-12T15:41:50.862Z,99084.61
2023-05-12T15:43:12.636Z,99086.98
2023-05-12T15:44:57.380Z,99079.00
2023-05-12T15:46:33.473Z,99085.20
2023-05-12T15:48:07.983Z,99082.70
2023-05-12T15:50:03.589Z,99084.93
2023-05-12T15:51:36.730Z,99088.29
2023-05-12T15:52:58.540Z,99088.91
2023-05-12T15:54:39.336Z,99088.11
2023-05-12T15:56:15.104Z,99086.96
2023-05-12T15:57:39.144Z,99089.09
2023-05-12T15:59:14.553Z,99091.77
2023-05-12T16:00:59.294Z,99088.18
2023-05-12T16:02:33.433Z,99088.61
2023-05-12T16:04:07.184Z,99091.40
2023-05-12T16:05:41.224Z,99088.23
2023-05-12T16:07:03.300Z,99088.26
2023-05-12T16:08:25.229Z,99089.87
2023-05-12T16:09:49.193Z,99087.55
2023-05-12T16:11:18.283Z,99086.84
2023-05-12T16:12:42.701Z,99084.20
2023-05-12T16:14:16.471Z,99086.27
2023-05-12T16:15:56.940Z,99080.61
2023-05-12T16:17:32.386Z,99083.52
2023-05-12T16:19:15.205Z,99087.13
2023-05-12T16:20:37.068Z,99088.05
2023-05-12T16:21:59.417Z,99088.84
2023-05-12T16:23:34.763Z,99091.95
2023-05-12T16:25:10.302Z,99092.34
2023-05-12T16:26:55.092Z,99093.21
2023-05-12T16:28:40.053Z,99090.91
2023-05-12T16:30:20.730Z,99091.55
2023-05-12T16:31:53.896Z,99090.72
2023-05-12T16:33:27.398Z,99093.29
2023-05-12T16:35:00.621Z,99095.52
2023-05-12T16:36:24.179Z,99099.27
2023-05-12T16:38:04.352Z,99099.83
2023-05-12T16:39:38.462Z,99097.98
2023-05-12T16:41:02.582Z,99097.70
2023-05-12T16:42:47.292Z,99101.86
2023-05-12T16:44:20.675Z,99100.93
2023-05-12T16:45:57.126Z,99101.20
2023-05-12T16:47:21.177Z,99103.05
2023-05-12T16:48:50.816Z,99098.58
2023-05-12T16:50:12.503Z,99099.84
2023-05-12T16:51:44.250Z,99101.75
2023-05-12T16:53:06.490Z,99105.48
2023-05-12T16:54:28.195Z,99103.49
2023-05-12T16:55:51.933Z,99104.27
2023-05-12T16:57:16.060Z,99105.27
2023-05-12T16:58:42.323Z,99099.45
2023-05-12T17:00:06.655Z,99107.07
2023-05-12T17:01:38.252Z,99107.34
2023-05-12T17:03:00.947Z,99111.69
2023-05-12T17:04:43.315Z,99111.85
2023-05-12T17:06:05.207Z,99098.18
2023-05-12T17:07:28.936Z,99110.43
2023-05-12T17:08:55.098Z,99112.88
2023-05-12T17:10:19.573Z,99115.88
2023-05-12T17:11:55.186Z,99114.58
2023-05-12T17:13:16.986Z,99116.65
2023-05-12T17:14:38.877Z,99117.64
2023-05-12T17:16:00.575Z,99117.39
2023-05-12T17:17:36.340Z,99120.52
2023-05-12T17:20:45.861Z,99120.11
2023-05-12T17:22:19.328Z,99123.23
2023-05-12T17:23:48.634Z,99124.00
2023-05-12T17:25:12.969Z,99124.39
2023-05-12T17:26:34.808Z,99127.04
2023-05-12T17:27:58.792Z,99121.65
2023-05-12T17:29:34.813Z,99130.47
2023-05-12T17:31:08.653Z,99120.98
2023-05-12T17:32:41.898Z,99129.29
2023-05-12T17:34:10.791Z,99122.89